This is the latest recevied weather packets stored in our database for station/object KJ6LNH-1. If no packets are shown the sender has not sent any weather packets the latest 10 day(s).
| Time | Temp. | Humidity | Pressure | Rain* | Wind** | Luminosity | Snow |
|---|---|---|---|---|---|---|---|
| 1778022608 | 17.22° C | 72% | 1013.9 hPa | 0 mm | - | - | - |
| 1778022007 | 16.67° C | 72% | 1013.9 hPa | 0 mm | - | - | - |
| 1778021708 | 16.67° C | 73% | 1013.9 hPa | 0 mm | - | - | - |
| 1778021408 | 16.67° C | 72% | 1013.9 hPa | 0 mm | - | - | - |
| 1778020807 | 17.22° C | 72% | 1014 hPa | 0 mm | - | - | - |
| 1778020508 | 17.22° C | 72% | 1014 hPa | 0 mm | - | - | - |
| 1778020211 | 17.22° C | 72% | 1014 hPa | 0 mm | - | - | - |
| 1778019908 | 17.22° C | 71% | 1014 hPa | 0 mm | - | - | - |
| 1778019608 | 17.22° C | 71% | 1014 hPa | 0 mm | - | - | - |
| 1778019007 | 17.22° C | 71% | 1014.1 hPa | 0 mm | - | - | - |
| 1778018710 | 17.78° C | 70% | 1014.1 hPa | 0 mm | - | - | - |
| 1778018108 | 17.22° C | 71% | 1014.1 hPa | 0 mm | - | - | - |
| 1778016908 | 16.11° C | 75% | 1014.3 hPa | 0 mm | - | - | - |
| 1778016607 | 16.11° C | 76% | 1014.3 hPa | 0 mm | - | - | - |
| 1778016307 | 16.11° C | 76% | 1014.4 hPa | 0 mm | - | - | - |
| 1778015708 | 16.11° C | 75% | 1014.4 hPa | 0 mm | - | - | - |
| 1778014807 | 16.67° C | 71% | 1014.3 hPa | 0 mm | - | - | - |
| 1778014207 | 17.78° C | 70% | 1014.4 hPa | 0 mm | - | - | - |
| 1778012707 | 16.67° C | 71% | 1014.5 hPa | 0 mm | - | - | - |
| 1778012408 | 16.67° C | 71% | 1014.5 hPa | 0 mm | - | - | - |
| 1778011808 | 16.11° C | 74% | 1014.5 hPa | 0 mm | - | - | - |
| 1778011207 | 16.11° C | 77% | 1014.7 hPa | 0 mm | - | - | - |
| 1778010907 | 16.11° C | 77% | 1014.7 hPa | 0 mm | - | - | - |
| 1778010608 | 16.11° C | 77% | 1014.7 hPa | 0 mm | - | - | - |
| 1778010308 | 15.56° C | 78% | 1014.7 hPa | 0 mm | - | - | - |
* Rain latest hour (hover to see other rain measurements)
** Current wind speed in m/s (hover to see current wind gust speed)